sensor_id;sensor_type;location;lat;lon;timestamp;P1;P2;P0
13030;PMS7003;6582;54.644;9.760;2022-10-19T00:00:03;81.8;70.8;
13030;PMS7003;6582;54.644;9.760;2022-10-19T00:05:07;82.7;72.6;
13030;PMS7003;6582;54.644;9.760;2022-10-19T00:10:13;83.5;74.2;
13030;PMS7003;6582;54.644;9.760;2022-10-19T00:15:16;82.9;73.8;
13030;PMS7003;6582;54.644;9.760;2022-10-19T00:20:02;83.2;75.2;
13030;PMS7003;6582;54.644;9.760;2022-10-19T00:25:06;84.6;78.1;
13030;PMS7003;6582;54.644;9.760;2022-10-19T00:30:01;85.0;78.8;
13030;PMS7003;6582;54.644;9.760;2022-10-19T00:40:02;85.2;79.0;
13030;PMS7003;6582;54.644;9.760;2022-10-19T00:45:04;87.9;83.0;
13030;PMS7003;6582;54.644;9.760;2022-10-19T00:50:02;87.5;82.1;
13030;PMS7003;6582;54.644;9.760;2022-10-19T00:55:02;87.2;81.2;
13030;PMS7003;6582;54.644;9.760;2022-10-19T01:00:03;88.4;82.8;
13030;PMS7003;6582;54.644;9.760;2022-10-19T01:05:02;90.6;85.9;
13030;PMS7003;6582;54.644;9.760;2022-10-19T01:10:02;91.6;86.9;
13030;PMS7003;6582;54.644;9.760;2022-10-19T01:30:03;109.6;109.2;
13030;PMS7003;6582;54.644;9.760;2022-10-19T01:35:12;122.5;122.3;
13030;PMS7003;6582;54.644;9.760;2022-10-19T01:40:03;126.1;125.9;
13030;PMS7003;6582;54.644;9.760;2022-10-19T01:45:07;128.3;128.2;
13030;PMS7003;6582;54.644;9.760;2022-10-19T01:50:07;124.3;124.2;
13030;PMS7003;6582;54.644;9.760;2022-10-19T01:55:06;121.7;121.6;
13030;PMS7003;6582;54.644;9.760;2022-10-19T02:00:11;113.3;112.4;
13030;PMS7003;6582;54.644;9.760;2022-10-19T02:05:12;135.4;134.5;
13030;PMS7003;6582;54.644;9.760;2022-10-19T02:10:02;127.8;126.4;
13030;PMS7003;6582;54.644;9.760;2022-10-19T02:15:05;125.8;124.2;
13030;PMS7003;6582;54.644;9.760;2022-10-19T02:20:02;124.8;121.6;
13030;PMS7003;6582;54.644;9.760;2022-10-19T02:25:01;123.6;119.1;
13030;PMS7003;6582;54.644;9.760;2022-10-19T02:30:01;93.2;87.1;
13030;PMS7003;6582;54.644;9.760;2022-10-19T02:35:01;93.6;87.2;
13030;PMS7003;6582;54.644;9.760;2022-10-19T02:40:02;93.2;85.8;
13030;PMS7003;6582;54.644;9.760;2022-10-19T02:45:06;92.9;85.6;
13030;PMS7003;6582;54.644;9.760;2022-10-19T02:50:03;94.8;89.0;
13030;PMS7003;6582;54.644;9.760;2022-10-19T02:55:01;95.7;91.3;
13030;PMS7003;6582;54.644;9.760;2022-10-19T03:00:01;95.8;91.8;
13030;PMS7003;6582;54.644;9.760;2022-10-19T03:10:01;99.6;97.9;
13030;PMS7003;6582;54.644;9.760;2022-10-19T03:15:01;103.2;102.0;
13030;PMS7003;6582;54.644;9.760;2022-10-19T03:20:01;107.6;106.8;
13030;PMS7003;6582;54.644;9.760;2022-10-19T03:25:01;114.0;113.5;
13030;PMS7003;6582;54.644;9.760;2022-10-19T03:30:01;117.8;117.7;
13030;PMS7003;6582;54.644;9.760;2022-10-19T03:35:01;118.8;118.6;
13030;PMS7003;6582;54.644;9.760;2022-10-19T03:40:01;117.7;117.5;
13030;PMS7003;6582;54.644;9.760;2022-10-19T03:45:01;117.8;117.6;
13030;PMS7003;6582;54.644;9.760;2022-10-19T03:50:07;109.8;108.9;
13030;PMS7003;6582;54.644;9.760;2022-10-19T03:55:01;104.7;102.8;
13030;PMS7003;6582;54.644;9.760;2022-10-19T04:00:02;97.8;93.2;
13030;PMS7003;6582;54.644;9.760;2022-10-19T04:05:07;91.0;83.7;
13030;PMS7003;6582;54.644;9.760;2022-10-19T04:10:02;82.7;72.6;
13030;PMS7003;6582;54.644;9.760;2022-10-19T04:15:02;79.6;67.6;
13030;PMS7003;6582;54.644;9.760;2022-10-19T04:20:01;76.7;63.2;
13030;PMS7003;6582;54.644;9.760;2022-10-19T04:25:02;74.2;61.4;
13030;PMS7003;6582;54.644;9.760;2022-10-19T04:30:03;73.2;60.7;
13030;PMS7003;6582;54.644;9.760;2022-10-19T04:35:01;71.3;59.3;
13030;PMS7003;6582;54.644;9.760;2022-10-19T04:40:01;70.7;59.0;
13030;PMS7003;6582;54.644;9.760;2022-10-19T04:45:06;74.9;64.9;
13030;PMS7003;6582;54.644;9.760;2022-10-19T04:50:01;76.8;66.0;
13030;PMS7003;6582;54.644;9.760;2022-10-19T04:55:02;78.2;67.0;
13030;PMS7003;6582;54.644;9.760;2022-10-19T05:00:04;80.4;69.0;
13030;PMS7003;6582;54.644;9.760;2022-10-19T05:05:12;81.9;70.6;
13030;PMS7003;6582;54.644;9.760;2022-10-19T05:10:01;80.6;68.8;
13030;PMS7003;6582;54.644;9.760;2022-10-19T05:15:01;83.9;74.0;
13030;PMS7003;6582;54.644;9.760;2022-10-19T05:20:06;87.2;79.3;
13030;PMS7003;6582;54.644;9.760;2022-10-19T05:25:01;89.9;83.3;
13030;PMS7003;6582;54.644;9.760;2022-10-19T05:30:02;89.8;83.4;
13030;PMS7003;6582;54.644;9.760;2022-10-19T05:35:02;88.9;82.1;
13030;PMS7003;6582;54.644;9.760;2022-10-19T05:40:01;87.8;80.0;
13030;PMS7003;6582;54.644;9.760;2022-10-19T05:45:02;87.0;78.1;
13030;PMS7003;6582;54.644;9.760;2022-10-19T05:50:01;86.2;77.0;
13030;PMS7003;6582;54.644;9.760;2022-10-19T05:55:01;88.3;80.5;
13030;PMS7003;6582;54.644;9.760;2022-10-19T06:00:06;90.0;83.2;
13030;PMS7003;6582;54.644;9.760;2022-10-19T06:05:01;92.2;87.2;
13030;PMS7003;6582;54.644;9.760;2022-10-19T06:10:06;93.2;88.9;
13030;PMS7003;6582;54.644;9.760;2022-10-19T06:30:01;75.6;62.6;
13030;PMS7003;6582;54.644;9.760;2022-10-19T06:35:06;79.3;66.0;
13030;PMS7003;6582;54.644;9.760;2022-10-19T06:40:08;81.5;68.6;
13030;PMS7003;6582;54.644;9.760;2022-10-19T06:45:02;82.3;69.3;
13030;PMS7003;6582;54.644;9.760;2022-10-19T06:50:03;83.2;70.4;
13030;PMS7003;6582;54.644;9.760;2022-10-19T06:55:02;85.8;72.8;
13030;PMS7003;6582;54.644;9.760;2022-10-19T07:00:07;83.9;71.0;
13030;PMS7003;6582;54.644;9.760;2022-10-19T07:05:08;81.8;68.8;
13030;PMS7003;6582;54.644;9.760;2022-10-19T07:10:02;79.2;66.5;
13030;PMS7003;6582;54.644;9.760;2022-10-19T07:15:02;76.0;63.3;
13030;PMS7003;6582;54.644;9.760;2022-10-19T07:20:07;74.4;61.4;
13030;PMS7003;6582;54.644;9.760;2022-10-19T07:25:03;79.7;68.3;
13030;PMS7003;6582;54.644;9.760;2022-10-19T07:30:01;80.0;68.3;
13030;PMS7003;6582;54.644;9.760;2022-10-19T07:35:03;80.6;68.7;
13030;PMS7003;6582;54.644;9.760;2022-10-19T07:40:02;81.8;69.7;
13030;PMS7003;6582;54.644;9.760;2022-10-19T07:45:02;80.3;68.7;
13030;PMS7003;6582;54.644;9.760;2022-10-19T07:50:01;75.0;62.0;
13030;PMS7003;6582;54.644;9.760;2022-10-19T07:55:02;73.2;60.7;
13030;PMS7003;6582;54.644;9.760;2022-10-19T08:00:06;71.6;59.7;
13030;PMS7003;6582;54.644;9.760;2022-10-19T08:05:12;69.2;58.0;
13030;PMS7003;6582;54.644;9.760;2022-10-19T08:10:02;77.0;67.0;
13030;PMS7003;6582;54.644;9.760;2022-10-19T08:15:01;76.1;66.4;
13030;PMS7003;6582;54.644;9.760;2022-10-19T08:20:06;77.1;67.1;
13030;PMS7003;6582;54.644;9.760;2022-10-19T08:40:17;74.8;62.0;
13030;PMS7003;6582;54.644;9.760;2022-10-19T08:45:20;69.5;57.6;
13030;PMS7003;6582;54.644;9.760;2022-10-19T08:50:09;67.5;56.1;
13030;PMS7003;6582;54.644;9.760;2022-10-19T08:55:05;65.8;54.9;
13030;PMS7003;6582;54.644;9.760;2022-10-19T09:00:05;64.8;54.2;
13030;PMS7003;6582;54.644;9.760;2022-10-19T09:05:04;62.9;52.7;
13030;PMS7003;6582;54.644;9.760;2022-10-19T09:10:17;63.4;53.3;
13030;PMS7003;6582;54.644;9.760;2022-10-19T09:30:04;78.0;65.6;
13030;PMS7003;6582;54.644;9.760;2022-10-19T09:50:21;76.4;64.6;
13030;PMS7003;6582;54.644;9.760;2022-10-19T09:55:18;76.7;65.4;
13030;PMS7003;6582;54.644;9.760;2022-10-19T10:00:15;75.9;64.3;
13030;PMS7003;6582;54.644;9.760;2022-10-19T10:05:04;78.6;68.3;
13030;PMS7003;6582;54.644;9.760;2022-10-19T10:10:10;79.5;69.8;
13030;PMS7003;6582;54.644;9.760;2022-10-19T10:15:03;84.0;76.7;
13030;PMS7003;6582;54.644;9.760;2022-10-19T10:20:04;87.9;82.8;
13030;PMS7003;6582;54.644;9.760;2022-10-19T10:25:11;109.6;107.0;
13030;PMS7003;6582;54.644;9.760;2022-10-19T10:30:15;136.3;134.9;
13030;PMS7003;6582;54.644;9.760;2022-10-19T10:35:15;162.7;162.7;
13030;PMS7003;6582;54.644;9.760;2022-10-19T10:40:05;172.2;172.2;
13030;PMS7003;6582;54.644;9.760;2022-10-19T10:45:14;181.5;181.5;
13030;PMS7003;6582;54.644;9.760;2022-10-19T10:50:14;172.4;172.4;
13030;PMS7003;6582;54.644;9.760;2022-10-19T11:10:03;87.0;85.0;
13030;PMS7003;6582;54.644;9.760;2022-10-19T11:15:10;96.6;94.9;
13030;PMS7003;6582;54.644;9.760;2022-10-19T11:20:01;91.1;87.5;
13030;PMS7003;6582;54.644;9.760;2022-10-19T11:25:16;95.2;92.4;
13030;PMS7003;6582;54.644;9.760;2022-10-19T11:40:12;100.8;100.8;
13030;PMS7003;6582;54.644;9.760;2022-10-19T11:45:19;103.0;103.0;
13030;PMS7003;6582;54.644;9.760;2022-10-19T12:10:06;84.8;80.8;
13030;PMS7003;6582;54.644;9.760;2022-10-19T12:15:04;79.0;71.1;
13030;PMS7003;6582;54.644;9.760;2022-10-19T12:20:12;78.3;69.7;
13030;PMS7003;6582;54.644;9.760;2022-10-19T12:25:10;78.8;70.5;
13030;PMS7003;6582;54.644;9.760;2022-10-19T12:30:06;78.4;69.7;
13030;PMS7003;6582;54.644;9.760;2022-10-19T12:35:04;77.4;68.1;
13030;PMS7003;6582;54.644;9.760;2022-10-19T13:00:06;82.0;73.8;
13030;PMS7003;6582;54.644;9.760;2022-10-19T13:40:03;84.8;80.8;
13030;PMS7003;6582;54.644;9.760;2022-10-19T13:45:01;83.8;78.8;
13030;PMS7003;6582;54.644;9.760;2022-10-19T13:50:09;84.9;80.3;
13030;PMS7003;6582;54.644;9.760;2022-10-19T14:10:05;96.4;96.4;
13030;PMS7003;6582;54.644;9.760;2022-10-19T14:15:12;90.3;87.5;
13030;PMS7003;6582;54.644;9.760;2022-10-19T14:30:19;81.6;73.2;
13030;PMS7003;6582;54.644;9.760;2022-10-19T14:35:15;83.4;77.4;
13030;PMS7003;6582;54.644;9.760;2022-10-19T14:40:04;85.1;80.3;
13030;PMS7003;6582;54.644;9.760;2022-10-19T14:45:02;85.6;81.0;
13030;PMS7003;6582;54.644;9.760;2022-10-19T14:50:02;86.2;81.8;
13030;PMS7003;6582;54.644;9.760;2022-10-19T14:55:07;87.0;83.2;
13030;PMS7003;6582;54.644;9.760;2022-10-19T15:00:06;87.3;83.2;
13030;PMS7003;6582;54.644;9.760;2022-10-19T15:05:14;87.9;83.9;
13030;PMS7003;6582;54.644;9.760;2022-10-19T15:10:03;87.8;83.6;
13030;PMS7003;6582;54.644;9.760;2022-10-19T15:15:07;88.6;84.4;
13030;PMS7003;6582;54.644;9.760;2022-10-19T15:20:02;86.5;81.2;
13030;PMS7003;6582;54.644;9.760;2022-10-19T15:40:08;76.2;63.8;
13030;PMS7003;6582;54.644;9.760;2022-10-19T15:45:03;76.2;63.6;
13030;PMS7003;6582;54.644;9.760;2022-10-19T15:50:01;77.3;64.9;
13030;PMS7003;6582;54.644;9.760;2022-10-19T15:55:01;77.1;64.5;
13030;PMS7003;6582;54.644;9.760;2022-10-19T16:20:02;81.2;67.4;
13030;PMS7003;6582;54.644;9.760;2022-10-19T16:25:02;82.1;68.1;
13030;PMS7003;6582;54.644;9.760;2022-10-19T16:30:06;82.3;69.1;
13030;PMS7003;6582;54.644;9.760;2022-10-19T16:35:11;86.6;76.7;
13030;PMS7003;6582;54.644;9.760;2022-10-19T16:40:02;91.8;83.8;
13030;PMS7003;6582;54.644;9.760;2022-10-19T16:45:07;98.5;93.3;
13030;PMS7003;6582;54.644;9.760;2022-10-19T16:50:02;105.5;103.1;
13030;PMS7003;6582;54.644;9.760;2022-10-19T16:55:02;112.5;112.4;
13030;PMS7003;6582;54.644;9.760;2022-10-19T17:00:03;117.0;116.9;
13030;PMS7003;6582;54.644;9.760;2022-10-19T17:05:02;117.1;116.8;
13030;PMS7003;6582;54.644;9.760;2022-10-19T17:10:02;116.8;116.5;
13030;PMS7003;6582;54.644;9.760;2022-10-19T17:15:16;117.9;117.7;
13030;PMS7003;6582;54.644;9.760;2022-10-19T17:25:07;124.1;123.8;
13030;PMS7003;6582;54.644;9.760;2022-10-19T17:30:07;132.1;131.8;
13030;PMS7003;6582;54.644;9.760;2022-10-19T17:35:01;146.3;146.0;
13030;PMS7003;6582;54.644;9.760;2022-10-19T17:40:07;160.0;159.7;
13030;PMS7003;6582;54.644;9.760;2022-10-19T17:45:06;173.0;172.8;
13030;PMS7003;6582;54.644;9.760;2022-10-19T17:50:08;182.3;181.9;
13030;PMS7003;6582;54.644;9.760;2022-10-19T18:10:03;215.2;215.2;
13030;PMS7003;6582;54.644;9.760;2022-10-19T18:15:17;208.5;208.5;
13030;PMS7003;6582;54.644;9.760;2022-10-19T18:20:07;200.9;200.9;
13030;PMS7003;6582;54.644;9.760;2022-10-19T18:25:02;196.9;196.9;
13030;PMS7003;6582;54.644;9.760;2022-10-19T18:30:02;199.6;199.4;
13030;PMS7003;6582;54.644;9.760;2022-10-19T18:35:02;196.2;195.8;
13030;PMS7003;6582;54.644;9.760;2022-10-19T18:40:02;200.4;200.0;
13030;PMS7003;6582;54.644;9.760;2022-10-19T18:45:03;205.3;204.7;
13030;PMS7003;6582;54.644;9.760;2022-10-19T18:50:02;208.4;207.7;
13030;PMS7003;6582;54.644;9.760;2022-10-19T18:55:01;209.6;208.9;
13030;PMS7003;6582;54.644;9.760;2022-10-19T19:00:03;211.8;211.2;
13030;PMS7003;6582;54.644;9.760;2022-10-19T19:05:01;204.8;204.0;
13030;PMS7003;6582;54.644;9.760;2022-10-19T19:10:11;211.0;210.4;
13030;PMS7003;6582;54.644;9.760;2022-10-19T19:15:02;221.0;220.4;
13030;PMS7003;6582;54.644;9.760;2022-10-19T19:20:11;204.1;203.6;
13030;PMS7003;6582;54.644;9.760;2022-10-19T19:25:11;196.4;195.9;
13030;PMS7003;6582;54.644;9.760;2022-10-19T19:30:02;188.6;188.5;
13030;PMS7003;6582;54.644;9.760;2022-10-19T19:35:06;175.0;174.2;
13030;PMS7003;6582;54.644;9.760;2022-10-19T19:40:01;153.2;152.4;
13030;PMS7003;6582;54.644;9.760;2022-10-19T19:45:02;164.4;163.6;
13030;PMS7003;6582;54.644;9.760;2022-10-19T19:50:02;172.8;172.1;
13030;PMS7003;6582;54.644;9.760;2022-10-19T19:55:01;185.1;184.4;
13030;PMS7003;6582;54.644;9.760;2022-10-19T20:00:01;203.6;203.6;
13030;PMS7003;6582;54.644;9.760;2022-10-19T20:10:02;200.7;200.7;
13030;PMS7003;6582;54.644;9.760;2022-10-19T20:15:02;197.0;197.0;
13030;PMS7003;6582;54.644;9.760;2022-10-19T20:20:11;186.8;186.8;
13030;PMS7003;6582;54.644;9.760;2022-10-19T20:25:02;173.8;173.4;
13030;PMS7003;6582;54.644;9.760;2022-10-19T20:30:02;148.1;147.7;
13030;PMS7003;6582;54.644;9.760;2022-10-19T20:35:01;149.6;149.2;
13030;PMS7003;6582;54.644;9.760;2022-10-19T20:40:09;150.3;149.9;
13030;PMS7003;6582;54.644;9.760;2022-10-19T20:45:07;147.0;146.6;
13030;PMS7003;6582;54.644;9.760;2022-10-19T20:50:01;158.2;158.2;
13030;PMS7003;6582;54.644;9.760;2022-10-19T20:55:01;174.1;174.1;
13030;PMS7003;6582;54.644;9.760;2022-10-19T21:00:01;194.8;194.8;
13030;PMS7003;6582;54.644;9.760;2022-10-19T21:05:07;204.4;204.4;
13030;PMS7003;6582;54.644;9.760;2022-10-19T21:10:02;205.2;205.0;
13030;PMS7003;6582;54.644;9.760;2022-10-19T21:15:01;194.2;194.0;
13030;PMS7003;6582;54.644;9.760;2022-10-19T21:20:03;181.8;181.6;
13030;PMS7003;6582;54.644;9.760;2022-10-19T21:25:02;167.2;167.0;
13030;PMS7003;6582;54.644;9.760;2022-10-19T21:30:03;151.5;151.2;
13030;PMS7003;6582;54.644;9.760;2022-10-19T21:35:11;164.7;164.6;
13030;PMS7003;6582;54.644;9.760;2022-10-19T21:40:01;176.6;176.5;
13030;PMS7003;6582;54.644;9.760;2022-10-19T21:50:06;182.0;181.8;
13030;PMS7003;6582;54.644;9.760;2022-10-19T21:55:02;178.0;177.4;
13030;PMS7003;6582;54.644;9.760;2022-10-19T22:00:06;186.4;185.6;
13030;PMS7003;6582;54.644;9.760;2022-10-19T22:05:02;180.8;180.0;
13030;PMS7003;6582;54.644;9.760;2022-10-19T22:10:01;173.1;172.4;
13030;PMS7003;6582;54.644;9.760;2022-10-19T22:15:11;188.2;187.5;
13030;PMS7003;6582;54.644;9.760;2022-10-19T22:20:02;189.0;188.2;
13030;PMS7003;6582;54.644;9.760;2022-10-19T22:30:01;177.3;176.4;
13030;PMS7003;6582;54.644;9.760;2022-10-19T22:35:03;170.8;169.4;
13030;PMS7003;6582;54.644;9.760;2022-10-19T22:40:01;158.6;156.9;
13030;PMS7003;6582;54.644;9.760;2022-10-19T22:50:01;162.0;160.8;
13030;PMS7003;6582;54.644;9.760;2022-10-19T22:55:02;153.8;152.6;
13030;PMS7003;6582;54.644;9.760;2022-10-19T23:00:02;153.1;152.0;
13030;PMS7003;6582;54.644;9.760;2022-10-19T23:05:07;160.8;160.2;
13030;PMS7003;6582;54.644;9.760;2022-10-19T23:10:04;161.9;161.5;
13030;PMS7003;6582;54.644;9.760;2022-10-19T23:15:03;174.4;174.1;
13030;PMS7003;6582;54.644;9.760;2022-10-19T23:20:11;208.0;207.7;
13030;PMS7003;6582;54.644;9.760;2022-10-19T23:25:03;250.7;250.7;
13030;PMS7003;6582;54.644;9.760;2022-10-19T23:30:02;279.3;279.3;
13030;PMS7003;6582;54.644;9.760;2022-10-19T23:35:11;298.9;298.9;
13030;PMS7003;6582;54.644;9.760;2022-10-19T23:40:07;315.2;315.2;
13030;PMS7003;6582;54.644;9.760;2022-10-19T23:45:06;313.5;313.5;
13030;PMS7003;6582;54.644;9.760;2022-10-19T23:50:11;309.3;309.3;
13030;PMS7003;6582;54.644;9.760;2022-10-19T23:55:12;310.1;310.1;
